createdAt,value
2019-02-08T00:01:37.754Z,82.53
2019-02-08T00:04:07.433Z,82.49
2019-02-08T00:06:36.958Z,82.24
2019-02-08T00:09:09.694Z,82.41
2019-02-08T00:11:39.249Z,82.21
2019-02-08T00:14:09.295Z,82.49
2019-02-08T00:16:38.837Z,82.40
2019-02-08T00:19:09.362Z,82.16
2019-02-08T00:21:38.827Z,81.91
2019-02-08T00:24:08.597Z,82.25
2019-02-08T00:26:38.206Z,82.50
2019-02-08T00:29:07.963Z,82.60
2019-02-08T00:31:37.474Z,82.08
2019-02-08T00:34:06.933Z,81.67
2019-02-08T00:36:36.411Z,81.78
2019-02-08T00:39:12.377Z,82.40
2019-02-08T00:41:41.863Z,81.49
2019-02-08T00:44:11.402Z,81.64
2019-02-08T00:46:40.971Z,82.23
2019-02-08T00:49:10.471Z,82.48
2019-02-08T00:51:40.046Z,82.72
2019-02-08T00:54:09.568Z,83.07
2019-02-08T00:56:39.126Z,83.17
2019-02-08T00:59:08.970Z,83.04
2019-02-08T01:01:38.448Z,83.24
2019-02-08T01:04:08.083Z,83.16
2019-02-08T01:06:37.573Z,83.25
2019-02-08T01:09:10.109Z,83.43
2019-02-08T01:11:39.612Z,82.76
2019-02-08T01:14:09.376Z,82.95
2019-02-08T01:16:39.254Z,82.52
2019-02-08T01:19:08.978Z,82.28
2019-02-08T01:21:38.473Z,81.88
2019-02-08T01:24:07.961Z,82.52
2019-02-08T01:26:37.432Z,82.46
2019-02-08T01:29:07.007Z,82.82
2019-02-08T01:31:36.487Z,82.58
2019-02-08T01:34:06.663Z,82.23
2019-02-08T01:36:36.188Z,81.83
2019-02-08T01:39:08.384Z,82.22
2019-02-08T01:41:38.080Z,82.05
2019-02-08T01:44:07.814Z,82.38
2019-02-08T01:46:37.289Z,82.48
2019-02-08T01:49:06.793Z,82.07
2019-02-08T01:51:36.273Z,81.93
2019-02-08T01:54:06.000Z,81.90
2019-02-08T01:56:35.487Z,81.64
2019-02-08T01:59:05.175Z,81.56
2019-02-08T02:01:34.698Z,81.87
2019-02-08T02:04:04.606Z,81.85
2019-02-08T02:06:34.099Z,81.82
2019-02-08T02:09:05.171Z,82.15
2019-02-08T02:11:34.644Z,82.33
2019-02-08T02:14:05.264Z,82.12
2019-02-08T02:16:35.030Z,82.24
2019-02-08T02:19:04.817Z,83.13
2019-02-08T02:21:34.348Z,83.25
2019-02-08T02:24:04.926Z,82.73
2019-02-08T02:26:34.611Z,82.56
2019-02-08T02:29:04.112Z,82.40
2019-02-08T02:31:33.661Z,82.64
2019-02-08T02:34:03.198Z,82.42
2019-02-08T02:36:32.708Z,82.02
2019-02-08T02:39:02.192Z,82.21
2019-02-08T02:41:31.820Z,82.50
2019-02-08T02:44:01.330Z,81.93
2019-02-08T02:46:30.820Z,81.91
2019-02-08T02:49:00.318Z,82.73
2019-02-08T02:51:29.791Z,82.83
2019-02-08T02:54:04.768Z,82.68
2019-02-08T02:56:30.646Z,83.33
2019-02-08T02:59:00.150Z,83.64
2019-02-08T03:01:29.820Z,83.79
2019-02-08T03:03:59.318Z,83.75
2019-02-08T03:06:28.866Z,83.72
2019-02-08T03:08:58.379Z,83.77
2019-02-08T03:11:28.035Z,84.12
2019-02-08T03:13:57.642Z,83.85
2019-02-08T03:16:27.148Z,83.14
2019-02-08T03:18:56.754Z,83.25
2019-02-08T03:21:26.261Z,83.11
2019-02-08T03:23:55.746Z,82.96
2019-02-08T03:26:26.157Z,83.01
2019-02-08T03:28:55.640Z,83.14
2019-02-08T03:31:25.149Z,83.30
2019-02-08T03:33:54.754Z,82.68
2019-02-08T03:36:24.267Z,83.35
2019-02-08T03:38:53.742Z,82.94
2019-02-08T03:41:23.297Z,82.83
2019-02-08T03:43:52.853Z,82.86
2019-02-08T03:46:22.328Z,82.19
2019-02-08T03:48:51.802Z,81.85
2019-02-08T03:51:21.347Z,82.05
2019-02-08T03:53:50.934Z,82.30
2019-02-08T03:56:20.505Z,81.70
2019-02-08T03:58:50.015Z,81.86
2019-02-08T04:01:19.482Z,81.72
2019-02-08T04:03:49.667Z,81.68
2019-02-08T04:06:19.142Z,81.21
2019-02-08T04:08:48.627Z,81.45
2019-02-08T04:11:18.224Z,81.22
2019-02-08T04:13:47.706Z,81.35
2019-02-08T04:16:17.191Z,81.37
2019-02-08T04:18:46.701Z,80.86
2019-02-08T04:21:16.118Z,81.13
2019-02-08T04:23:45.633Z,81.40
2019-02-08T04:26:15.136Z,81.53
2019-02-08T04:28:44.669Z,81.36
2019-02-08T04:31:14.129Z,80.51
2019-02-08T04:33:43.666Z,81.14
2019-02-08T04:36:13.229Z,81.33
2019-02-08T04:38:42.813Z,81.44
2019-02-08T04:41:12.353Z,82.00
2019-02-08T04:43:41.761Z,81.05
2019-02-08T04:46:11.478Z,81.22
2019-02-08T04:48:40.927Z,81.20
2019-02-08T04:51:10.417Z,81.06
2019-02-08T04:53:39.889Z,81.00
2019-02-08T04:56:09.609Z,80.57
2019-02-08T04:58:39.103Z,80.89
2019-02-08T05:01:08.592Z,81.18
2019-02-08T05:03:38.422Z,81.92
2019-02-08T05:06:08.212Z,82.17
2019-02-08T05:08:37.894Z,81.95
2019-02-08T05:11:07.424Z,82.37
2019-02-08T05:13:37.461Z,82.02
2019-02-08T05:16:07.317Z,81.90
2019-02-08T05:18:36.877Z,82.18
2019-02-08T05:21:06.358Z,82.27
2019-02-08T05:23:35.905Z,82.12
2019-02-08T05:26:05.374Z,82.55
2019-02-08T05:28:34.907Z,82.01
2019-02-08T05:31:04.735Z,81.64
2019-02-08T05:33:34.308Z,82.23
2019-02-08T05:36:03.873Z,82.75
2019-02-08T05:38:33.352Z,82.14
2019-02-08T05:41:02.843Z,82.07
2019-02-08T05:43:32.324Z,81.52
2019-02-08T05:46:01.934Z,82.09
2019-02-08T05:48:31.423Z,82.61
2019-02-08T05:51:00.902Z,81.67
2019-02-08T05:53:30.373Z,81.61
2019-02-08T05:55:59.887Z,81.32
2019-02-08T05:58:29.396Z,82.23
2019-02-08T06:00:59.479Z,81.73
2019-02-08T06:03:28.870Z,81.95
2019-02-08T06:05:58.576Z,81.18
2019-02-08T06:08:28.264Z,81.10
2019-02-08T06:10:58.143Z,81.20
2019-02-08T06:13:27.961Z,81.32
2019-02-08T06:15:57.428Z,81.35
2019-02-08T06:18:26.905Z,81.14
2019-02-08T06:20:56.279Z,81.04
2019-02-08T06:23:25.876Z,81.13
2019-02-08T06:25:55.408Z,80.61
2019-02-08T06:28:24.879Z,80.83
2019-02-08T06:30:54.293Z,81.40
2019-02-08T06:33:24.645Z,81.34
2019-02-08T06:35:54.348Z,81.30
2019-02-08T06:38:23.784Z,80.40
2019-02-08T06:40:53.383Z,80.72
2019-02-08T06:43:23.048Z,80.20
2019-02-08T06:45:52.633Z,80.26
2019-02-08T06:48:22.243Z,80.00
2019-02-08T06:50:51.618Z,79.96
2019-02-08T06:53:21.018Z,80.03
2019-02-08T06:55:53.855Z,79.20
2019-02-08T06:58:39.626Z,79.50
2019-02-08T07:01:40.191Z,79.91
2019-02-08T07:04:24.962Z,80.29
2019-02-08T07:07:16.294Z,80.62
2019-02-08T07:10:03.329Z,80.47
2019-02-08T07:12:49.733Z,80.66
2019-02-08T07:15:40.940Z,80.06
2019-02-08T07:18:28.167Z,79.64
2019-02-08T07:21:22.720Z,79.80
2019-02-08T07:24:10.100Z,79.98
2019-02-08T07:26:53.169Z,79.92
2019-02-08T07:29:50.807Z,79.51
2019-02-08T07:32:30.052Z,79.42
2019-02-08T07:35:22.873Z,79.81
2019-02-08T07:38:14.832Z,79.29
2019-02-08T07:41:12.261Z,79.62
2019-02-08T07:44:01.252Z,79.48
2019-02-08T07:46:53.034Z,79.99
2019-02-08T07:49:42.143Z,79.44
2019-02-08T07:52:36.449Z,80.17
2019-02-08T07:55:25.934Z,80.09
2019-02-08T07:58:18.045Z,79.29
2019-02-08T08:01:09.684Z,78.33
2019-02-08T08:03:50.509Z,78.68
2019-02-08T08:06:31.338Z,78.46
2019-02-08T08:09:22.500Z,78.90
2019-02-08T08:12:26.252Z,79.17
2019-02-08T08:15:10.962Z,79.37
2019-02-08T08:18:06.222Z,79.04
2019-02-08T08:21:00.742Z,78.85
2019-02-08T08:23:56.871Z,78.58
2019-02-08T08:26:58.020Z,77.89
2019-02-08T08:29:38.127Z,78.21
2019-02-08T08:32:15.173Z,78.47
2019-02-08T08:35:13.889Z,77.73
2019-02-08T08:38:25.113Z,78.52
2019-02-08T08:41:26.243Z,78.03
2019-02-08T08:44:33.402Z,78.19
2019-02-08T08:47:58.732Z,77.67
2019-02-08T08:51:17.852Z,77.13
2019-02-08T08:54:40.262Z,77.02
2019-02-08T08:57:42.101Z,76.69
2019-02-08T09:00:54.322Z,77.03
2019-02-08T09:03:53.903Z,77.07
2019-02-08T09:06:41.172Z,77.83
2019-02-08T09:09:52.784Z,77.23
2019-02-08T09:13:00.991Z,76.58
2019-02-08T09:15:56.770Z,76.37
2019-02-08T09:18:54.756Z,75.76
2019-02-08T09:21:56.371Z,75.73
2019-02-08T09:25:00.976Z,75.20
2019-02-08T09:28:14.277Z,75.49
2019-02-08T09:31:36.929Z,75.73
2019-02-08T09:34:31.487Z,75.64
2019-02-08T09:37:37.802Z,74.94
2019-02-08T09:40:46.588Z,74.63
2019-02-08T09:43:52.967Z,74.40
2019-02-08T09:47:06.621Z,73.30
2019-02-08T09:50:23.572Z,73.80
2019-02-08T09:53:36.631Z,74.58
2019-02-08T09:56:51.015Z,74.35
2019-02-08T10:00:07.443Z,74.28
2019-02-08T10:03:15.537Z,74.00
2019-02-08T10:06:27.864Z,74.01
2019-02-08T10:09:33.341Z,73.88
2019-02-08T10:13:01.636Z,73.26
2019-02-08T10:16:11.881Z,73.11
2019-02-08T10:19:16.911Z,72.96
2019-02-08T10:22:39.241Z,72.74
2019-02-08T10:26:05.400Z,72.31
2019-02-08T10:29:09.229Z,72.20
2019-02-08T10:32:05.570Z,71.62
2019-02-08T10:35:20.692Z,71.19
2019-02-08T10:38:33.437Z,71.11
2019-02-08T10:41:55.452Z,70.78
2019-02-08T10:45:00.512Z,70.48
2019-02-08T10:48:41.058Z,69.17
2019-02-08T10:51:55.780Z,70.04
2019-02-08T10:54:55.127Z,68.45
2019-02-08T10:57:54.488Z,68.62
2019-02-08T11:01:18.794Z,68.65
2019-02-08T11:04:34.952Z,69.05
2019-02-08T11:07:34.486Z,67.51
2019-02-08T11:11:05.802Z,68.03
2019-02-08T11:14:19.947Z,66.71
2019-02-08T11:17:36.468Z,66.00
2019-02-08T11:20:08.459Z,66.41
2019-02-08T11:22:37.871Z,65.84
2019-02-08T11:25:07.681Z,65.07
2019-02-08T11:27:37.124Z,65.24
2019-02-08T11:30:10.615Z,64.54
2019-02-08T11:32:43.279Z,64.07
2019-02-08T11:35:11.690Z,63.78
2019-02-08T11:37:42.383Z,64.09
2019-02-08T11:40:16.494Z,63.98
2019-02-08T11:42:47.053Z,64.02
2019-02-08T11:45:18.507Z,63.70
2019-02-08T11:47:47.927Z,62.56
2019-02-08T11:50:19.305Z,62.01
2019-02-08T11:52:48.787Z,61.88
2019-02-08T11:55:18.733Z,62.21
2019-02-08T11:57:48.194Z,61.44
2019-02-08T12:00:23.587Z,61.51
2019-02-08T12:02:52.965Z,60.96
2019-02-08T12:05:22.976Z,59.42
2019-02-08T12:07:52.605Z,59.42
2019-02-08T12:10:23.345Z,59.46
2019-02-08T12:12:52.872Z,58.80
2019-02-08T12:15:22.739Z,57.68
2019-02-08T12:17:52.223Z,57.68
2019-02-08T12:20:21.759Z,57.93
2019-02-08T12:22:51.157Z,57.33
2019-02-08T12:25:20.775Z,55.49
2019-02-08T12:27:50.220Z,54.33
2019-02-08T12:30:23.742Z,53.29
2019-02-08T12:32:53.186Z,52.31
2019-02-08T12:35:23.150Z,52.31
2019-02-08T12:37:52.668Z,52.49
2019-02-08T12:40:22.131Z,52.06
2019-02-08T12:42:51.524Z,51.16
2019-02-08T12:45:21.795Z,51.13
2019-02-08T12:47:51.238Z,51.15
2019-02-08T12:50:20.942Z,49.80
2019-02-08T12:52:50.377Z,48.63
2019-02-08T12:55:19.991Z,48.29
2019-02-08T12:57:49.421Z,48.53
2019-02-08T13:00:20.425Z,48.72
2019-02-08T13:02:49.916Z,47.19
2019-02-08T13:05:20.038Z,45.86
2019-02-08T13:07:49.431Z,45.43
2019-02-08T13:10:21.170Z,44.65
2019-02-08T13:12:50.583Z,46.13
2019-02-08T13:15:20.279Z,43.99
2019-02-08T13:17:49.964Z,42.52
2019-02-08T13:20:20.068Z,41.84
2019-02-08T13:22:49.863Z,44.19
2019-02-08T13:25:19.720Z,42.13
2019-02-08T13:27:49.418Z,44.43
2019-02-08T13:30:24.402Z,45.21
2019-02-08T13:32:53.805Z,43.30
2019-02-08T13:35:23.293Z,42.71
2019-02-08T13:37:52.895Z,42.62
2019-02-08T13:40:23.101Z,42.59
2019-02-08T13:42:52.502Z,42.27
2019-02-08T13:45:22.013Z,43.30
2019-02-08T13:47:51.433Z,42.47
2019-02-08T13:50:23.228Z,42.77
2019-02-08T13:52:52.617Z,43.42
2019-02-08T13:55:23.584Z,44.20
2019-02-08T13:57:53.171Z,43.42
2019-02-08T14:00:28.613Z,41.75
2019-02-08T14:02:58.210Z,41.88
2019-02-08T14:05:27.596Z,41.94
2019-02-08T14:07:57.035Z,43.23
2019-02-08T14:10:26.632Z,44.89
2019-02-08T14:12:56.226Z,45.35
2019-02-08T14:15:25.946Z,44.96
2019-02-08T14:17:55.330Z,44.23
2019-02-08T14:20:26.107Z,44.69
2019-02-08T14:22:55.597Z,44.56
2019-02-08T14:25:25.493Z,45.57
2019-02-08T14:27:54.998Z,45.36
2019-02-08T14:30:27.157Z,46.83
2019-02-08T14:32:56.704Z,47.81
2019-02-08T14:35:26.453Z,48.26
2019-02-08T14:37:56.388Z,48.71
2019-02-08T14:40:25.977Z,48.55
2019-02-08T14:42:55.507Z,48.64
2019-02-08T14:45:24.983Z,49.65
2019-02-08T14:47:54.417Z,50.00
2019-02-08T14:50:25.707Z,51.55
2019-02-08T14:52:55.850Z,52.73
2019-02-08T14:55:25.272Z,53.14
2019-02-08T14:57:55.718Z,53.53
2019-02-08T15:00:25.205Z,53.90
2019-02-08T15:02:54.635Z,54.13
2019-02-08T15:05:24.230Z,54.97
2019-02-08T15:07:53.685Z,55.45
2019-02-08T15:10:25.754Z,55.21
2019-02-08T15:12:55.138Z,55.21
2019-02-08T15:15:24.567Z,55.41
2019-02-08T15:17:54.014Z,55.41
2019-02-08T15:20:28.646Z,56.08
2019-02-08T15:22:58.210Z,56.43
2019-02-08T15:25:27.864Z,56.77
2019-02-08T15:27:57.964Z,57.13
2019-02-08T15:30:30.197Z,57.13
2019-02-08T15:32:59.795Z,57.62
2019-02-08T15:35:30.506Z,57.91
2019-02-08T15:38:00.179Z,57.91
2019-02-08T15:40:33.269Z,58.07
2019-02-08T15:43:02.710Z,58.26
2019-02-08T15:45:32.290Z,58.23
2019-02-08T15:48:01.715Z,58.96
2019-02-08T15:50:31.172Z,58.80
2019-02-08T15:53:00.636Z,58.70
2019-02-08T15:55:32.187Z,58.57
2019-02-08T15:58:01.575Z,58.71
2019-02-08T16:00:31.962Z,59.20
2019-02-08T16:03:01.734Z,59.39
2019-02-08T16:05:32.219Z,59.36
2019-02-08T16:08:01.703Z,59.36
2019-02-08T16:10:31.075Z,59.85
2019-02-08T16:13:00.475Z,59.57
2019-02-08T16:15:29.993Z,59.95
2019-02-08T16:17:59.440Z,60.54
2019-02-08T16:20:29.440Z,60.40
2019-02-08T16:22:59.273Z,60.41
2019-02-08T16:25:29.923Z,61.23
2019-02-08T16:27:59.508Z,61.51
2019-02-08T16:30:30.492Z,61.69
2019-02-08T16:33:00.479Z,62.01
2019-02-08T16:35:30.190Z,62.71
2019-02-08T16:37:59.613Z,62.81
2019-02-08T16:40:29.466Z,64.37
2019-02-08T16:42:59.294Z,63.74
2019-02-08T16:45:33.753Z,63.39
2019-02-08T16:48:04.698Z,62.95
2019-02-08T16:50:34.230Z,63.13
2019-02-08T16:53:04.256Z,62.85
2019-02-08T16:55:33.754Z,63.30
2019-02-08T16:58:03.331Z,64.09
2019-02-08T17:00:34.607Z,64.71
2019-02-08T17:03:06.520Z,64.98
2019-02-08T17:05:36.066Z,65.06
2019-02-08T17:08:05.896Z,65.19
2019-02-08T17:10:35.496Z,66.16
2019-02-08T17:13:05.327Z,65.31
2019-02-08T17:15:35.394Z,65.28
2019-02-08T17:18:06.169Z,65.53
2019-02-08T17:20:40.688Z,65.47
2019-02-08T17:23:10.684Z,65.98
2019-02-08T17:25:40.429Z,65.63
2019-02-08T17:28:11.023Z,66.85
2019-02-08T17:30:40.530Z,67.38
2019-02-08T17:33:11.221Z,66.68
2019-02-08T17:35:40.771Z,67.07
2019-02-08T17:38:10.290Z,67.37
2019-02-08T17:40:41.649Z,67.04
2019-02-08T17:43:11.067Z,66.98
2019-02-08T17:45:40.642Z,67.52
2019-02-08T17:48:13.025Z,68.37
2019-02-08T17:50:43.035Z,68.53
2019-02-08T17:53:12.522Z,68.51
2019-02-08T17:55:41.989Z,67.81
2019-02-08T17:58:11.582Z,68.58
2019-02-08T18:00:48.242Z,68.25
2019-02-08T18:03:17.834Z,68.29
2019-02-08T18:05:47.465Z,68.81
2019-02-08T18:08:17.072Z,68.31
2019-02-08T18:10:46.518Z,68.35
2019-02-08T18:13:16.966Z,68.64
2019-02-08T18:15:46.691Z,69.19
2019-02-08T18:18:18.554Z,68.57
2019-02-08T18:20:50.093Z,68.22
2019-02-08T18:23:19.587Z,68.32
2019-02-08T18:25:48.973Z,68.23
2019-02-08T18:28:18.386Z,67.75
2019-02-08T18:30:47.933Z,67.62
2019-02-08T18:33:17.434Z,68.23
2019-02-08T18:35:46.972Z,67.56
2019-02-08T18:38:16.530Z,67.69
2019-02-08T18:40:46.105Z,67.85
2019-02-08T18:43:15.609Z,68.12
2019-02-08T18:45:45.031Z,67.86
2019-02-08T18:48:14.394Z,67.11
2019-02-08T18:50:49.206Z,67.70
2019-02-08T18:53:18.596Z,67.74
2019-02-08T18:55:47.974Z,67.04
2019-02-08T18:58:19.348Z,67.34
2019-02-08T19:00:50.164Z,66.65
2019-02-08T19:03:20.002Z,67.03
2019-02-08T19:05:49.362Z,66.65
2019-02-08T19:08:20.099Z,66.37
2019-02-08T19:10:49.475Z,66.78
2019-02-08T19:13:18.861Z,66.31
2019-02-08T19:15:48.272Z,66.71
2019-02-08T19:18:17.646Z,66.22
2019-02-08T19:20:47.020Z,66.68
2019-02-08T19:23:16.450Z,66.87
2019-02-08T19:25:45.968Z,67.03
2019-02-08T19:28:15.601Z,67.47
2019-02-08T19:30:45.424Z,66.05
2019-02-08T19:33:16.522Z,66.27
2019-02-08T19:35:45.924Z,66.41
2019-02-08T19:38:15.303Z,67.07
2019-02-08T19:40:46.856Z,67.09
2019-02-08T19:43:16.510Z,65.93
2019-02-08T19:45:45.950Z,66.04
2019-02-08T19:48:15.327Z,65.67
2019-02-08T19:50:45.948Z,65.39
2019-02-08T19:53:15.528Z,66.06
2019-02-08T19:55:44.912Z,65.53
2019-02-08T19:58:14.549Z,66.31
2019-02-08T20:00:44.357Z,65.44
2019-02-08T20:03:13.885Z,65.37
2019-02-08T20:05:43.361Z,64.74
2019-02-08T20:08:14.305Z,64.80
2019-02-08T20:10:45.691Z,64.95
2019-02-08T20:13:15.203Z,65.29
2019-02-08T20:15:45.121Z,64.31
2019-02-08T20:18:15.202Z,64.27
2019-02-08T20:20:44.920Z,64.18
2019-02-08T20:23:14.334Z,64.39
2019-02-08T20:25:43.718Z,63.96
2019-02-08T20:28:13.233Z,64.07
2019-02-08T20:30:42.808Z,64.27
2019-02-08T20:33:12.202Z,64.09
2019-02-08T20:35:41.579Z,64.80
2019-02-08T20:38:11.355Z,64.63
2019-02-08T20:40:43.407Z,64.46
2019-02-08T20:43:12.797Z,64.78
2019-02-08T20:45:42.410Z,64.90
2019-02-08T20:48:20.663Z,65.10
2019-02-08T20:50:50.412Z,65.18
2019-02-08T20:53:20.120Z,65.03
2019-02-08T20:55:50.094Z,65.29
2019-02-08T20:58:22.586Z,65.97
2019-02-08T21:00:53.940Z,65.62
2019-02-08T21:03:24.348Z,66.05
2019-02-08T21:05:54.184Z,65.76
2019-02-08T21:08:24.119Z,65.57
2019-02-08T21:10:53.778Z,65.67
2019-02-08T21:13:23.403Z,65.15
2019-02-08T21:15:52.897Z,64.54
2019-02-08T21:18:22.302Z,64.14
2019-02-08T21:20:51.915Z,63.98
2019-02-08T21:23:22.956Z,64.45
2019-02-08T21:25:52.672Z,64.66
2019-02-08T21:28:22.983Z,64.55
2019-02-08T21:30:52.368Z,64.34
2019-02-08T21:33:21.770Z,64.52
2019-02-08T21:35:51.182Z,64.55
2019-02-08T21:38:20.757Z,64.91
2019-02-08T21:40:50.288Z,64.25
2019-02-08T21:43:19.666Z,64.95
2019-02-08T21:45:49.124Z,64.51
2019-02-08T21:48:18.543Z,65.46
2019-02-08T21:50:48.183Z,64.40
2019-02-08T21:53:17.745Z,64.94
2019-02-08T21:55:47.251Z,64.62
2019-02-08T21:58:16.653Z,64.91
2019-02-08T22:00:46.202Z,64.12
2019-02-08T22:03:15.648Z,64.93
2019-02-08T22:05:48.052Z,64.46
2019-02-08T22:08:17.433Z,64.28
2019-02-08T22:10:46.816Z,64.43
2019-02-08T22:13:16.251Z,65.07
2019-02-08T22:15:46.067Z,64.48
2019-02-08T22:18:15.471Z,64.92
2019-02-08T22:20:44.880Z,64.27
2019-02-08T22:23:14.359Z,65.26
2019-02-08T22:25:43.857Z,64.74
2019-02-08T22:28:13.273Z,65.11
2019-02-08T22:30:43.100Z,64.01
2019-02-08T22:33:12.545Z,64.21
2019-02-08T22:35:42.347Z,64.49
2019-02-08T22:38:11.851Z,63.43
2019-02-08T22:40:41.375Z,64.20
2019-02-08T22:43:10.760Z,63.88
2019-02-08T22:45:41.353Z,63.75
2019-02-08T22:48:10.957Z,63.46
2019-02-08T22:50:40.470Z,63.96
2019-02-08T22:53:10.934Z,63.42
2019-02-08T22:55:40.316Z,63.31
2019-02-08T22:58:10.164Z,62.94
2019-02-08T23:01:17.908Z,62.92
2019-02-08T23:03:47.376Z,62.65
2019-02-08T23:06:16.822Z,63.21
2019-02-08T23:08:46.221Z,63.25
2019-02-08T23:11:15.653Z,62.83
2019-02-08T23:13:45.113Z,62.80
2019-02-08T23:16:14.953Z,63.30
2019-02-08T23:18:44.342Z,63.14
2019-02-08T23:21:13.706Z,62.92
2019-02-08T23:23:43.147Z,62.51
2019-02-08T23:26:12.536Z,62.61
2019-02-08T23:28:41.937Z,63.32
2019-02-08T23:31:11.486Z,63.02
2019-02-08T23:33:40.999Z,64.09
2019-02-08T23:36:10.466Z,64.73
2019-02-08T23:38:39.888Z,65.39
2019-02-08T23:41:09.527Z,64.61
2019-02-08T23:43:39.018Z,64.31
2019-02-08T23:46:08.442Z,64.35
2019-02-08T23:48:38.016Z,63.74
2019-02-08T23:51:07.479Z,63.74
2019-02-08T23:53:37.209Z,63.53
2019-02-08T23:56:06.802Z,63.68
2019-02-08T23:58:36.173Z,64.19
